createdAt,value
2017-05-08T00:00:25.973Z,10.40
2017-05-08T00:02:55.043Z,10.30
2017-05-08T00:05:24.138Z,10.30
2017-05-08T00:07:53.615Z,10.10
2017-05-08T00:10:22.696Z,10.00
2017-05-08T00:12:51.779Z,9.90
2017-05-08T00:15:20.898Z,9.80
2017-05-08T00:17:49.971Z,9.70
2017-05-08T00:20:19.072Z,9.60
2017-05-08T00:22:48.870Z,9.40
2017-05-08T00:25:17.966Z,9.40
2017-05-08T00:27:47.771Z,9.30
2017-05-08T00:30:17.001Z,9.30
2017-05-08T00:32:46.060Z,9.30
2017-05-08T00:35:15.879Z,9.10
2017-05-08T00:37:45.714Z,9.10
2017-05-08T00:40:14.789Z,9.10
2017-05-08T00:42:44.883Z,9.20
2017-05-08T00:45:14.087Z,9.30
2017-05-08T00:47:43.528Z,9.20
2017-05-08T00:50:12.625Z,9.20
2017-05-08T00:52:42.418Z,9.10
2017-05-08T00:55:12.244Z,9.00
2017-05-08T00:57:41.310Z,8.90
2017-05-08T01:00:10.515Z,8.90
2017-05-08T01:02:45.438Z,8.80
2017-05-08T01:05:21.627Z,8.70
2017-05-08T01:07:56.586Z,8.80
2017-05-08T01:10:32.104Z,8.70
2017-05-08T01:13:07.125Z,8.60
2017-05-08T01:15:43.191Z,8.50
2017-05-08T01:18:18.115Z,8.60
2017-05-08T01:20:53.412Z,8.50
2017-05-08T01:23:29.071Z,8.50
2017-05-08T01:26:04.251Z,8.50
2017-05-08T01:28:39.283Z,8.40
2017-05-08T01:31:14.627Z,8.40
2017-05-08T01:33:50.351Z,8.30
2017-05-08T01:36:25.715Z,8.40
2017-05-08T01:39:00.731Z,8.50
2017-05-08T01:41:35.851Z,8.40
2017-05-08T01:44:10.736Z,8.40
2017-05-08T01:46:46.055Z,8.40
2017-05-08T01:49:20.974Z,8.40
2017-05-08T01:51:56.058Z,8.40
2017-05-08T01:54:30.957Z,8.50
2017-05-08T01:57:06.499Z,8.50
2017-05-08T01:59:41.516Z,8.50
2017-05-08T02:02:16.770Z,8.50
2017-05-08T02:04:51.892Z,8.50
2017-05-08T02:07:27.246Z,8.60
2017-05-08T02:10:02.347Z,8.60
2017-05-08T02:12:37.427Z,8.70
2017-05-08T02:15:12.335Z,8.80
2017-05-08T02:17:47.655Z,8.80
2017-05-08T02:20:22.563Z,8.70
2017-05-08T02:22:57.763Z,8.70
2017-05-08T02:25:32.743Z,8.60
2017-05-08T02:28:08.237Z,8.60
2017-05-08T02:30:43.868Z,8.40
2017-05-08T02:33:18.814Z,8.50
2017-05-08T02:35:54.651Z,8.50
2017-05-08T02:38:29.803Z,8.50
2017-05-08T02:41:04.820Z,8.50
2017-05-08T02:43:40.493Z,8.60
2017-05-08T02:46:15.402Z,8.60
2017-05-08T02:48:50.619Z,8.50
2017-05-08T02:51:25.731Z,8.50
2017-05-08T02:54:01.769Z,8.40
2017-05-08T02:56:36.688Z,8.40
2017-05-08T02:59:12.839Z,8.40
2017-05-08T03:01:47.842Z,8.30
2017-05-08T03:04:23.941Z,8.20
2017-05-08T03:06:58.972Z,8.30
2017-05-08T03:09:34.306Z,8.20
2017-05-08T03:12:09.464Z,8.30
2017-05-08T03:14:44.688Z,8.40
2017-05-08T03:17:19.739Z,8.40
2017-05-08T03:19:55.568Z,8.30
2017-05-08T03:22:30.542Z,8.40
2017-05-08T03:25:06.450Z,8.30
2017-05-08T03:27:41.486Z,8.30
2017-05-08T03:30:16.936Z,8.30
2017-05-08T03:32:51.916Z,8.30
2017-05-08T03:35:26.987Z,8.30
2017-05-08T03:38:02.638Z,8.20
2017-05-08T03:40:37.789Z,8.30
2017-05-08T03:43:13.611Z,8.30
2017-05-08T03:45:48.642Z,8.40
2017-05-08T03:48:24.400Z,8.40
2017-05-08T03:50:59.880Z,8.50
2017-05-08T03:53:34.839Z,8.60
2017-05-08T03:56:10.181Z,8.60
2017-05-08T03:58:45.288Z,8.60
2017-05-08T04:01:20.480Z,8.60
2017-05-08T04:03:55.377Z,8.50
2017-05-08T04:06:31.218Z,8.40
2017-05-08T04:09:06.111Z,8.50
2017-05-08T04:11:41.172Z,8.50
2017-05-08T04:14:16.135Z,8.40
2017-05-08T04:16:51.387Z,8.40
2017-05-08T04:19:26.273Z,8.40
2017-05-08T04:22:01.821Z,8.30
2017-05-08T04:24:37.551Z,8.30
2017-05-08T04:27:12.555Z,8.30
2017-05-08T04:29:48.236Z,8.30
2017-05-08T04:32:23.412Z,8.40
2017-05-08T04:34:58.322Z,8.50
2017-05-08T04:37:33.342Z,8.50
2017-05-08T04:40:08.295Z,8.50
2017-05-08T04:42:43.521Z,8.40
2017-05-08T04:45:18.471Z,8.50
2017-05-08T04:47:53.734Z,8.50
2017-05-08T04:50:28.842Z,8.50
2017-05-08T04:53:04.391Z,8.50
2017-05-08T04:55:39.367Z,8.50
2017-05-08T04:58:14.460Z,8.60
2017-05-08T05:00:49.388Z,8.70
2017-05-08T05:03:24.710Z,8.70
2017-05-08T05:05:59.603Z,8.60
2017-05-08T05:08:34.879Z,8.60
2017-05-08T05:11:09.967Z,8.60
2017-05-08T05:13:45.171Z,8.50
2017-05-08T05:16:20.175Z,8.60
2017-05-08T05:18:55.416Z,8.60
2017-05-08T05:21:31.082Z,8.50
2017-05-08T05:24:06.355Z,8.60
2017-05-08T05:26:41.451Z,8.60
2017-05-08T05:29:16.807Z,8.60
2017-05-08T05:31:51.700Z,8.60
2017-05-08T05:34:26.887Z,8.60
2017-05-08T05:37:01.927Z,8.60
2017-05-08T05:39:37.038Z,8.60
2017-05-08T05:42:12.195Z,8.60
2017-05-08T05:44:47.483Z,8.60
2017-05-08T05:47:23.155Z,8.60
2017-05-08T05:49:58.503Z,8.70
2017-05-08T05:52:33.392Z,8.70
2017-05-08T05:55:08.775Z,8.80
2017-05-08T05:57:43.703Z,8.90
2017-05-08T06:00:18.779Z,8.90
2017-05-08T06:02:53.831Z,8.90
2017-05-08T06:05:29.219Z,8.90
2017-05-08T06:08:04.112Z,8.80
2017-05-08T06:10:40.028Z,8.70
2017-05-08T06:13:14.995Z,8.80
2017-05-08T06:15:51.074Z,8.80
2017-05-08T06:18:26.028Z,8.90
2017-05-08T06:21:01.139Z,9.00
2017-05-08T06:23:36.215Z,8.90
2017-05-08T06:26:11.530Z,8.90
2017-05-08T06:28:46.570Z,8.90
2017-05-08T06:31:21.739Z,9.00
2017-05-08T06:33:56.698Z,9.00
2017-05-08T06:36:31.894Z,8.90
2017-05-08T06:39:06.799Z,9.00
2017-05-08T06:41:42.868Z,9.00
2017-05-08T06:44:17.814Z,9.10
2017-05-08T06:46:53.122Z,9.00
2017-05-08T06:49:27.992Z,9.10
2017-05-08T06:52:03.510Z,9.20
2017-05-08T06:54:38.435Z,9.30
2017-05-08T06:57:13.544Z,9.40
2017-05-08T06:59:48.591Z,9.50
2017-05-08T07:02:23.979Z,9.40
2017-05-08T07:04:58.912Z,9.40
2017-05-08T07:07:34.306Z,9.40
2017-05-08T07:10:09.218Z,9.40
2017-05-08T07:12:44.439Z,9.40
2017-05-08T07:15:19.303Z,9.50
2017-05-08T07:17:54.778Z,9.50
2017-05-08T07:20:29.719Z,9.50
2017-05-08T07:23:04.936Z,9.60
2017-05-08T07:25:39.899Z,9.60
2017-05-08T07:28:15.124Z,9.60
2017-05-08T07:30:50.388Z,9.70
2017-05-08T07:33:25.345Z,9.60
2017-05-08T07:36:00.316Z,9.60
2017-05-08T07:38:35.407Z,9.70
2017-05-08T07:41:10.371Z,9.70
2017-05-08T07:43:45.523Z,9.60
2017-05-08T07:46:20.699Z,9.60
2017-05-08T07:48:56.005Z,9.50
2017-05-08T07:51:30.956Z,9.50
2017-05-08T07:54:06.166Z,9.70
2017-05-08T07:56:41.199Z,9.90
2017-05-08T07:59:16.575Z,10.10
2017-05-08T08:01:51.527Z,10.10
2017-05-08T08:04:26.612Z,10.10
2017-05-08T08:07:01.595Z,10.20
2017-05-08T08:09:36.649Z,10.30
2017-05-08T08:12:11.606Z,10.20
2017-05-08T08:14:46.782Z,10.20
2017-05-08T08:17:21.795Z,10.20
2017-05-08T08:19:56.907Z,10.30
2017-05-08T08:22:32.639Z,10.20
2017-05-08T08:25:07.907Z,10.10
2017-05-08T08:27:43.670Z,10.00
2017-05-08T08:30:18.947Z,9.90
2017-05-08T08:32:53.891Z,9.70
2017-05-08T08:35:28.887Z,9.70
2017-05-08T08:38:04.200Z,9.60
2017-05-08T08:40:39.543Z,9.60
2017-05-08T08:43:15.276Z,9.60
2017-05-08T08:45:50.362Z,9.70
2017-05-08T08:48:25.473Z,9.80
2017-05-08T08:51:00.603Z,9.80
2017-05-08T08:53:35.561Z,9.80
2017-05-08T08:56:10.905Z,10.00
2017-05-08T08:58:45.928Z,10.10
2017-05-08T09:01:21.259Z,10.20
2017-05-08T09:03:56.444Z,10.10
2017-05-08T09:06:31.571Z,10.00
2017-05-08T09:09:06.455Z,10.00
2017-05-08T09:11:41.543Z,10.00
2017-05-08T09:14:16.642Z,10.10
2017-05-08T09:16:52.071Z,10.30
2017-05-08T09:19:27.042Z,10.60
2017-05-08T09:22:02.240Z,11.00
2017-05-08T09:24:37.175Z,11.10
2017-05-08T09:27:12.679Z,11.50
2017-05-08T09:29:47.759Z,11.60
2017-05-08T09:32:22.803Z,11.50
2017-05-08T09:34:57.766Z,11.70
2017-05-08T09:37:33.592Z,11.80
2017-05-08T09:40:08.471Z,11.80
2017-05-08T09:42:44.443Z,11.90
2017-05-08T09:45:19.585Z,12.00
2017-05-08T09:47:54.684Z,11.80
2017-05-08T09:50:29.663Z,11.70
2017-05-08T09:53:04.801Z,11.70
2017-05-08T09:55:39.815Z,11.50
2017-05-08T09:58:15.239Z,11.50
2017-05-08T10:00:50.127Z,11.20
2017-05-08T10:03:25.218Z,11.00
2017-05-08T10:06:00.106Z,11.10
2017-05-08T10:08:35.315Z,10.90
2017-05-08T10:11:10.925Z,10.90
2017-05-08T10:13:45.955Z,11.00
2017-05-08T10:16:20.930Z,11.10
2017-05-08T10:18:55.964Z,11.20
2017-05-08T10:21:30.911Z,11.30
2017-05-08T10:24:05.878Z,11.20
2017-05-08T10:26:40.760Z,11.10
2017-05-08T10:29:16.281Z,11.00
2017-05-08T10:31:51.233Z,11.10
2017-05-08T10:34:27.184Z,11.20
2017-05-08T10:37:02.204Z,11.10
2017-05-08T10:39:37.267Z,10.80
2017-05-08T10:42:12.165Z,10.80
2017-05-08T10:44:47.743Z,10.80
2017-05-08T10:47:22.792Z,10.70
2017-05-08T10:49:58.131Z,10.40
2017-05-08T10:52:33.026Z,10.40
2017-05-08T10:55:08.184Z,10.40
2017-05-08T10:57:43.302Z,10.50
2017-05-08T11:00:18.492Z,10.60
2017-05-08T11:02:53.738Z,10.60
2017-05-08T11:05:29.952Z,10.60
2017-05-08T11:08:04.978Z,10.60
2017-05-08T11:10:42.067Z,10.60
2017-05-08T11:13:17.070Z,10.50
2017-05-08T11:15:52.372Z,10.60
2017-05-08T11:18:27.505Z,10.80
2017-05-08T11:21:02.513Z,10.90
2017-05-08T11:23:38.135Z,11.00
2017-05-08T11:26:13.231Z,11.00
2017-05-08T11:28:48.134Z,11.00
2017-05-08T11:31:23.164Z,10.70
2017-05-08T11:33:58.211Z,10.60
2017-05-08T11:36:33.341Z,10.50
2017-05-08T11:39:09.163Z,10.50
2017-05-08T11:41:44.822Z,10.30
2017-05-08T11:44:19.752Z,10.30
2017-05-08T11:46:55.006Z,10.30
2017-05-08T11:49:29.941Z,10.30
2017-05-08T11:52:05.176Z,10.30
2017-05-08T11:54:40.207Z,10.20
2017-05-08T11:57:15.470Z,10.30
2017-05-08T11:59:50.497Z,10.40
2017-05-08T12:02:25.549Z,10.50
2017-05-08T12:05:00.647Z,10.70
2017-05-08T12:07:35.727Z,10.80
2017-05-08T12:10:10.783Z,10.90
2017-05-08T12:12:46.262Z,10.70
2017-05-08T12:15:21.197Z,10.60
2017-05-08T12:17:56.276Z,10.60
2017-05-08T12:20:31.302Z,10.40
2017-05-08T12:23:06.594Z,10.30
2017-05-08T12:25:41.715Z,10.30
2017-05-08T12:28:16.912Z,10.10
2017-05-08T12:30:51.883Z,10.10
2017-05-08T12:33:26.988Z,10.00
2017-05-08T12:36:01.902Z,10.00
2017-05-08T12:38:37.108Z,9.90
2017-05-08T12:41:12.116Z,9.90
2017-05-08T12:43:47.296Z,9.70
2017-05-08T12:46:22.247Z,9.60
2017-05-08T12:48:57.243Z,9.50
2017-05-08T12:51:32.202Z,9.40
2017-05-08T12:54:07.399Z,9.30
2017-05-08T12:56:42.543Z,9.30
2017-05-08T12:59:17.642Z,9.30
2017-05-08T13:01:52.571Z,9.30
2017-05-08T13:04:27.863Z,9.30
2017-05-08T13:07:02.923Z,9.50
2017-05-08T13:09:38.042Z,9.60
2017-05-08T13:12:13.022Z,9.70
2017-05-08T13:14:49.239Z,9.60
2017-05-08T13:17:24.246Z,9.60
2017-05-08T13:19:59.319Z,9.60
2017-05-08T13:22:34.247Z,9.70
2017-05-08T13:25:09.972Z,9.70
2017-05-08T13:27:45.596Z,9.80
2017-05-08T13:30:20.666Z,9.90
2017-05-08T13:32:55.635Z,10.00
2017-05-08T13:35:30.754Z,10.10
2017-05-08T13:38:05.682Z,10.30
2017-05-08T13:40:40.883Z,10.40
2017-05-08T13:43:15.745Z,10.50
2017-05-08T13:45:51.155Z,10.60
2017-05-08T13:48:26.103Z,10.70
2017-05-08T13:51:01.435Z,10.90
2017-05-08T13:53:37.154Z,11.10
2017-05-08T13:56:12.626Z,11.20
2017-05-08T13:58:47.534Z,11.30
2017-05-08T14:01:23.006Z,11.20
2017-05-08T14:03:58.066Z,11.20
2017-05-08T14:06:33.347Z,11.20
2017-05-08T14:09:08.310Z,11.20
2017-05-08T14:11:43.371Z,11.30
2017-05-08T14:14:18.324Z,11.40
2017-05-08T14:16:53.724Z,11.60
2017-05-08T14:19:28.661Z,11.70
2017-05-08T14:22:03.886Z,11.80
2017-05-08T14:24:39.143Z,12.00
2017-05-08T14:27:14.391Z,12.30
2017-05-08T14:29:49.412Z,12.50
2017-05-08T14:32:24.459Z,12.60
2017-05-08T14:34:59.500Z,12.90
2017-05-08T14:37:34.539Z,13.10
2017-05-08T14:40:09.477Z,13.20
2017-05-08T14:42:44.793Z,13.40
2017-05-08T14:45:19.882Z,13.60
2017-05-08T14:47:55.059Z,13.60
2017-05-08T14:50:29.989Z,13.50
2017-05-08T14:53:05.242Z,13.40
2017-05-08T14:55:41.043Z,13.40
2017-05-08T14:58:16.406Z,13.60
2017-05-08T15:00:51.491Z,13.60
2017-05-08T15:03:27.924Z,13.50
2017-05-08T15:06:02.971Z,13.60
2017-05-08T15:08:38.088Z,13.90
2017-05-08T15:11:13.008Z,14.30
2017-05-08T15:13:48.104Z,14.60
2017-05-08T15:16:23.182Z,14.50
2017-05-08T15:18:58.505Z,14.60
2017-05-08T15:21:34.251Z,14.20
2017-05-08T15:24:09.331Z,14.10
2017-05-08T15:26:44.368Z,13.90
2017-05-08T15:29:20.316Z,13.90
2017-05-08T15:31:55.274Z,14.10
2017-05-08T15:34:30.327Z,14.20
2017-05-08T15:37:05.479Z,14.10
2017-05-08T15:39:40.651Z,14.20
2017-05-08T15:42:15.748Z,14.10
2017-05-08T15:44:50.819Z,14.20
2017-05-08T15:47:26.439Z,14.40
2017-05-08T15:50:01.510Z,14.60
2017-05-08T15:52:36.614Z,14.80
2017-05-08T15:55:11.685Z,15.20
2017-05-08T15:57:46.728Z,15.10
2017-05-08T16:00:21.778Z,15.10
2017-05-08T16:02:56.859Z,15.00
2017-05-08T16:05:32.008Z,15.90
2017-05-08T16:08:06.919Z,16.90
2017-05-08T16:10:42.392Z,17.20
2017-05-08T16:13:17.428Z,17.20
2017-05-08T16:15:52.669Z,16.60
2017-05-08T16:18:28.383Z,16.20
2017-05-08T16:21:04.142Z,15.50
2017-05-08T16:23:39.074Z,15.10
2017-05-08T16:26:14.472Z,14.90
2017-05-08T16:28:49.483Z,14.40
2017-05-08T16:31:24.828Z,14.60
2017-05-08T16:33:59.741Z,14.70
2017-05-08T16:36:34.930Z,14.90
2017-05-08T16:39:09.943Z,14.90
2017-05-08T16:41:45.212Z,15.00
2017-05-08T16:44:20.291Z,15.00
2017-05-08T16:46:55.727Z,15.00
2017-05-08T16:49:30.735Z,15.10
2017-05-08T16:52:05.903Z,15.00
2017-05-08T16:54:40.876Z,15.00
2017-05-08T16:57:16.775Z,14.80
2017-05-08T16:59:51.695Z,14.70
2017-05-08T17:02:26.687Z,14.70
2017-05-08T17:05:01.688Z,14.80
2017-05-08T17:07:37.228Z,14.70
2017-05-08T17:10:13.059Z,14.40
2017-05-08T17:12:48.230Z,14.10
2017-05-08T17:15:23.200Z,13.90
2017-05-08T17:17:58.724Z,13.80
2017-05-08T17:20:33.794Z,13.90
2017-05-08T17:23:09.606Z,14.20
2017-05-08T17:25:44.540Z,14.40
2017-05-08T17:28:19.732Z,13.70
2017-05-08T17:30:54.807Z,13.20
2017-05-08T17:33:30.040Z,13.00
2017-05-08T17:36:05.144Z,12.60
2017-05-08T17:38:40.186Z,12.40
2017-05-08T17:41:15.244Z,11.90
2017-05-08T17:43:50.483Z,11.80
2017-05-08T17:46:25.632Z,11.90
2017-05-08T17:49:01.418Z,12.00
2017-05-08T17:51:36.605Z,12.00
2017-05-08T17:54:11.801Z,12.00
2017-05-08T17:56:46.750Z,11.90
2017-05-08T17:59:21.812Z,11.70
2017-05-08T18:01:57.203Z,11.70
2017-05-08T18:04:32.217Z,11.60
2017-05-08T18:07:07.117Z,11.50
2017-05-08T18:09:42.584Z,11.50
2017-05-08T18:12:17.570Z,11.50
2017-05-08T18:14:53.361Z,11.50
2017-05-08T18:17:28.323Z,11.60
2017-05-08T18:20:04.137Z,11.40
2017-05-08T18:22:39.093Z,11.40
2017-05-08T18:25:14.208Z,11.40
2017-05-08T18:27:50.096Z,11.30
2017-05-08T18:30:25.337Z,11.20
2017-05-08T18:33:00.320Z,11.00
2017-05-08T18:35:35.362Z,10.90
2017-05-08T18:38:10.276Z,10.90
2017-05-08T18:40:45.524Z,10.80
2017-05-08T18:43:20.564Z,10.90
2017-05-08T18:45:55.747Z,10.90
2017-05-08T18:48:31.413Z,10.80
2017-05-08T18:51:06.891Z,10.90
2017-05-08T18:53:41.863Z,10.80
2017-05-08T18:56:17.052Z,10.70
2017-05-08T18:58:52.130Z,10.60
2017-05-08T19:01:27.968Z,10.60
2017-05-08T19:04:02.895Z,10.60
2017-05-08T19:06:38.007Z,10.60
2017-05-08T19:09:13.096Z,10.60
2017-05-08T19:11:48.500Z,10.50
2017-05-08T19:14:23.412Z,10.30
2017-05-08T19:16:58.485Z,10.10
2017-05-08T19:19:34.315Z,9.90
2017-05-08T19:22:09.520Z,9.80
2017-05-08T19:24:45.168Z,9.70
2017-05-08T19:27:20.349Z,9.70
2017-05-08T19:29:55.493Z,9.60
2017-05-08T19:32:30.912Z,9.60
2017-05-08T19:35:06.655Z,9.60
2017-05-08T19:37:41.581Z,9.60
2017-05-08T19:40:16.493Z,9.60
2017-05-08T19:42:51.539Z,9.60
2017-05-08T19:45:26.508Z,9.60
2017-05-08T19:48:01.514Z,9.50
2017-05-08T19:50:30.715Z,9.60
2017-05-08T19:52:59.795Z,9.60
2017-05-08T19:55:28.939Z,9.60
2017-05-08T19:57:58.013Z,9.50
2017-05-08T20:00:27.081Z,9.50
2017-05-08T20:02:56.872Z,9.40
2017-05-08T20:05:26.077Z,9.50
2017-05-08T20:07:55.899Z,9.40
2017-05-08T20:10:25.004Z,9.60
2017-05-08T20:12:54.089Z,9.60
2017-05-08T20:15:23.168Z,9.60
2017-05-08T20:17:52.992Z,9.50
2017-05-08T20:20:22.331Z,9.40
2017-05-08T20:22:51.431Z,9.30
2017-05-08T20:25:20.500Z,9.30
2017-05-08T20:27:49.797Z,9.30
2017-05-08T20:30:18.852Z,9.30
2017-05-08T20:32:47.906Z,9.30
2017-05-08T20:35:17.400Z,9.40
2017-05-08T20:37:46.473Z,9.40
2017-05-08T20:40:15.663Z,9.40
2017-05-08T20:42:45.470Z,9.30
2017-05-08T20:45:14.515Z,9.30
2017-05-08T20:47:43.611Z,9.30
2017-05-08T20:50:12.716Z,9.30
2017-05-08T20:52:41.958Z,9.20
2017-05-08T20:55:11.069Z,9.20
2017-05-08T20:57:40.138Z,9.20
2017-05-08T21:00:09.961Z,9.10
2017-05-08T21:02:39.752Z,9.00
2017-05-08T21:05:09.579Z,9.00
2017-05-08T21:07:38.640Z,9.00
2017-05-08T21:10:07.823Z,9.00
2017-05-08T21:12:36.889Z,8.90
2017-05-08T21:15:05.952Z,8.90
2017-05-08T21:17:35.030Z,8.80
2017-05-08T21:20:04.091Z,8.80
2017-05-08T21:22:33.311Z,8.80
2017-05-08T21:25:02.370Z,8.70
2017-05-08T21:27:31.454Z,8.70
2017-05-08T21:30:01.267Z,8.70
2017-05-08T21:32:30.335Z,8.70
2017-05-08T21:34:59.543Z,8.70
2017-05-08T21:37:28.607Z,8.60
2017-05-08T21:39:57.668Z,8.60
2017-05-08T21:42:26.765Z,8.60
2017-05-08T21:44:55.849Z,8.60
2017-05-08T21:47:24.912Z,8.60
2017-05-08T21:49:53.986Z,8.60
2017-05-08T21:52:23.321Z,8.60
2017-05-08T21:54:52.405Z,8.60
2017-05-08T21:57:22.196Z,8.50
2017-05-08T21:59:51.279Z,8.50
2017-05-08T22:02:20.338Z,8.50
2017-05-08T22:04:49.429Z,8.50
2017-05-08T22:07:18.508Z,8.40
2017-05-08T22:09:47.847Z,8.50
2017-05-08T22:12:16.904Z,8.50
2017-05-08T22:14:46.001Z,8.50
2017-05-08T22:17:15.106Z,8.50
2017-05-08T22:19:44.163Z,8.40
2017-05-08T22:22:13.243Z,8.40
2017-05-08T22:24:42.311Z,8.30
2017-05-08T22:27:11.760Z,8.30
2017-05-08T22:29:40.840Z,8.30
2017-05-08T22:32:09.895Z,8.20
2017-05-08T22:34:38.993Z,8.10
2017-05-08T22:37:08.052Z,8.10
2017-05-08T22:39:37.452Z,8.00
2017-05-08T22:42:06.499Z,8.00
2017-05-08T22:44:35.591Z,7.90
2017-05-08T22:47:04.691Z,7.90
2017-05-08T22:49:33.761Z,7.90
2017-05-08T22:52:02.959Z,7.80
2017-05-08T22:54:32.027Z,7.70
2017-05-08T22:57:01.096Z,7.70
2017-05-08T22:59:30.928Z,7.60
2017-05-08T23:02:00.869Z,7.70
2017-05-08T23:04:30.019Z,7.60
2017-05-08T23:06:59.093Z,7.60
2017-05-08T23:09:28.940Z,7.40
2017-05-08T23:11:57.988Z,7.50
2017-05-08T23:14:27.209Z,7.40
2017-05-08T23:16:56.306Z,7.30
2017-05-08T23:19:25.388Z,7.30
2017-05-08T23:21:55.218Z,7.20
2017-05-08T23:24:25.020Z,7.20
2017-05-08T23:26:54.139Z,7.30
2017-05-08T23:29:23.203Z,7.20
2017-05-08T23:31:52.632Z,7.20
2017-05-08T23:34:21.711Z,7.10
2017-05-08T23:36:50.779Z,7.00
2017-05-08T23:39:19.861Z,6.90
2017-05-08T23:41:48.926Z,6.90
2017-05-08T23:44:18.315Z,6.80
2017-05-08T23:46:47.356Z,6.80
2017-05-08T23:49:16.417Z,6.70
2017-05-08T23:51:45.507Z,6.60
2017-05-08T23:54:14.568Z,6.60
2017-05-08T23:56:43.663Z,6.50
2017-05-08T23:59:12.730Z,6.50
